Time;durP1;ratioP1;P1;durP2;ratioP2;P2;SDS_P1;SDS_P2;PMS_P1;PMS_P2;Temp;Humidity;BMP_temperature;BMP_pressure;BME280_temperature;BME280_humidity;BME280_pressure;Samples;Min_cycle;Max_cycle;Signal;HPM_P1;HPM_P2
2022/07/22 00:02:23;;;;;;;5.03;4.73;;;;;;;20.15;100.00;-4070.53;5093495;28;20188;-61
2022/07/22 00:04:50;;;;;;;7.90;4.73;;;;;;;20.22;100.00;-3098.16;5093217;28;20193;-62
2022/07/22 00:07:17;;;;;;;4.60;4.20;;;;;;;20.24;100.00;-1801.06;5093148;28;20191;-61
2022/07/22 00:09:44;;;;;;;4.90;4.57;;;;;;;20.17;100.00;2417.28;5092918;28;20542;-62
2022/07/22 00:12:12;;;;;;;5.95;5.45;;;;;;;20.06;100.00;4039.91;5047441;28;1299049;-62
2022/07/22 00:14:39;;;;;;;5.93;5.63;;;;;;;19.97;100.00;3714.13;5094096;28;20188;-61
2022/07/22 00:17:07;;;;;;;6.00;5.37;;;;;;;19.83;100.00;1765.06;5094006;28;20615;-61
2022/07/22 00:19:34;;;;;;;5.88;5.53;;;;;;;19.90;100.00;-505.09;5093648;28;20299;-61
2022/07/22 00:22:01;;;;;;;5.33;5.00;;;;;;;19.91;100.00;-505.06;5093814;28;20187;-61
2022/07/22 00:24:28;;;;;;;5.63;5.23;;;;;;;19.98;100.00;-1153.31;5093930;28;20188;-61
2022/07/22 00:26:55;;;;;;;5.70;5.27;;;;;;;19.97;100.00;-1801.81;5093812;28;20207;-61
2022/07/22 00:29:25;;;;;;;5.43;4.97;;;;;;;19.87;100.00;-3098.38;5093531;28;20246;-62
2022/07/22 00:31:52;;;;;;;5.60;5.20;;;;;;;19.70;100.00;-2450.53;5093459;28;20184;-62
2022/07/22 00:34:19;;;;;;;4.70;4.50;;;;;;;19.73;100.00;-2450.50;5093695;28;20188;-62
2022/07/22 00:36:46;;;;;;;5.57;5.23;;;;;;;19.79;100.00;-2774.41;5093068;28;20571;-62
2022/07/22 00:39:13;;;;;;;11.83;5.57;;;;;;;19.70;100.00;-2774.53;5092982;28;20191;-62
2022/07/22 00:41:39;;;;;;;8.73;5.20;;;;;;;19.71;100.00;-2450.53;5092517;28;20184;-62
2022/07/22 00:44:08;;;;;;;11.63;5.30;;;;;;;19.73;100.00;-3422.38;5093376;28;20191;-61
2022/07/22 00:46:38;;;;;;;6.10;4.83;;;;;;;19.70;100.00;-3422.38;5093398;28;20532;-62
2022/07/22 00:49:06;;;;;;;4.87;4.50;;;;;;;19.72;100.00;-1154.25;5092947;28;20196;-62
2022/07/22 00:51:33;;;;;;;4.70;4.30;;;;;;;19.67;100.00;-506.19;5092994;28;20634;-62
2022/07/22 00:54:02;;;;;;;5.00;4.43;;;;;;;19.83;100.00;-1802.16;5093534;28;20560;-61
2022/07/22 00:56:31;;;;;;;5.23;4.67;;;;;;;19.86;100.00;-1153.75;5092842;28;20193;-61
2022/07/22 00:59:01;;;;;;;11.47;4.87;;;;;;;19.93;100.00;-829.25;5093529;28;20566;-61
2022/07/22 01:01:28;;;;;;;4.60;4.40;;;;;;;19.86;100.00;143.28;5092578;28;20575;-61
2022/07/22 01:03:56;;;;;;;4.87;4.57;;;;;;;19.73;100.00;142.56;5092938;28;20527;-61
2022/07/22 01:06:23;;;;;;;6.70;4.80;;;;;;;19.83;100.00;791.78;5092843;28;20627;-62
2022/07/22 01:08:50;;;;;;;4.80;4.50;;;;;;;19.74;100.00;791.22;5092861;28;20187;-62
2022/07/22 01:11:20;;;;;;;4.60;4.20;;;;;;;19.78;100.00;-505.66;5092887;28;20668;-61
2022/07/22 01:13:48;;;;;;;10.20;5.17;;;;;;;19.70;100.00;-506.06;5092705;28;20582;-61
2022/07/22 01:16:16;;;;;;;5.33;4.77;;;;;;;19.64;100.00;-830.47;5092649;28;20200;-61
2022/07/22 01:18:44;;;;;;;4.60;4.20;;;;;;;19.73;100.00;-1478.34;5092348;28;20184;-61
2022/07/22 01:21:14;;;;;;;5.07;4.63;;;;;;;19.76;100.00;-1154.13;5092642;28;20740;-62
2022/07/22 01:23:41;;;;;;;5.23;4.70;;;;;;;19.79;100.00;-829.81;5092461;28;20192;-62
2022/07/22 01:26:08;;;;;;;6.53;4.30;;;;;;;19.75;100.00;-830.00;5092671;28;20528;-61
2022/07/22 01:28:35;;;;;;;4.87;4.50;;;;;;;19.71;100.00;-1154.31;5092481;28;20188;-62
2022/07/22 01:31:02;;;;;;;5.67;4.63;;;;;;;19.88;100.00;-180.91;5092258;28;20187;-62
2022/07/22 01:33:29;;;;;;;5.93;4.63;;;;;;;19.74;100.00;1115.53;5092208;28;20191;-62
2022/07/22 01:35:56;;;;;;;8.90;5.28;;;;;;;19.90;100.00;467.88;5092219;28;20188;-62
2022/07/22 01:38:24;;;;;;;5.20;4.90;;;;;;;19.93;100.00;1441.41;5092214;28;20638;-62
2022/07/22 01:40:51;;;;;;;4.97;4.77;;;;;;;19.96;100.00;2415.34;5092110;28;20208;-63
2022/07/22 01:43:20;;;;;;;6.10;5.03;;;;;;;20.02;100.00;3714.66;5092015;28;20191;-62
2022/07/22 01:45:49;;;;;;;5.57;5.07;;;;;;;19.99;100.00;5338.44;5092185;28;20237;-62
2022/07/22 01:48:16;;;;;;;7.27;4.67;;;;;;;19.89;100.00;4037.94;5092318;28;20196;-61
2022/07/22 01:50:46;;;;;;;10.33;5.47;;;;;;;19.82;100.00;2413.97;5092167;28;20184;-61
2022/07/22 01:53:13;;;;;;;8.30;4.73;;;;;;;19.77;100.00;1764.56;5092155;28;20241;-62
2022/07/22 01:55:41;;;;;;;5.33;5.13;;;;;;;19.64;100.00;790.53;5091700;28;20180;-62
2022/07/22 01:58:08;;;;;;;7.27;5.00;;;;;;;19.50;100.00;-2774.72;5092324;28;20229;-62
2022/07/22 02:00:36;;;;;;;5.03;4.63;;;;;;;19.58;100.00;-2774.66;5091828;28;20302;-61
2022/07/22 02:03:03;;;;;;;6.67;5.17;;;;;;;19.53;100.00;-2450.81;5092262;28;20188;-62
2022/07/22 02:05:30;;;;;;;7.13;5.30;;;;;;;19.64;100.00;-182.19;5092211;28;20646;-61
2022/07/22 02:08:01;;;;;;;6.13;5.73;;;;;;;19.61;100.00;3061.00;5092018;28;20187;-61
2022/07/22 02:10:28;;;;;;;4.97;4.77;;;;;;;19.64;100.00;5333.47;5092025;28;20641;-61
2022/07/22 02:12:57;;;;;;;6.00;5.70;;;;;;;19.56;100.00;8255.97;5091650;28;20227;-61
2022/07/22 02:15:24;;;;;;;6.27;5.77;;;;;;;19.52;100.00;7605.28;5091604;28;20270;-62
2022/07/22 02:17:51;;;;;;;6.27;5.70;;;;;;;19.45;100.00;6304.97;5091523;28;20241;-62
2022/07/22 02:20:18;;;;;;;6.33;5.90;;;;;;;19.48;100.00;6630.19;5091482;28;20204;-61
2022/07/22 02:22:45;;;;;;;7.30;6.00;;;;;;;19.51;100.00;6955.41;5091751;28;20180;-62
2022/07/22 02:25:12;;;;;;;6.40;5.57;;;;;;;19.47;100.00;8254.16;5091864;28;20188;-62
2022/07/22 02:27:39;;;;;;;11.60;5.77;;;;;;;19.49;100.00;8254.63;5091895;28;20659;-61
2022/07/22 02:30:09;;;;;;;13.77;5.80;;;;;;;19.30;100.00;6951.94;5091922;28;20657;-62
2022/07/22 02:32:36;;;;;;;10.10;5.47;;;;;;;19.51;100.00;5331.78;5091564;28;20230;-61
2022/07/22 02:35:03;;;;;;;5.37;5.13;;;;;;;19.41;100.00;4032.13;5091862;28;20552;-61
2022/07/22 02:37:30;;;;;;;5.97;5.40;;;;;;;19.24;100.00;3705.75;5091349;28;20180;-62
2022/07/22 02:39:57;;;;;;;5.67;5.10;;;;;;;19.04;100.00;2730.84;5091596;28;20184;-61
2022/07/22 02:42:24;;;;;;;5.87;5.43;;;;;;;18.88;100.00;2081.22;5091586;28;20200;-64
2022/07/22 02:44:51;;;;;;;5.30;5.00;;;;;;;18.58;100.00;-1481.94;5091294;28;20237;-62
2022/07/22 02:47:19;;;;;;;5.97;5.57;;;;;;;18.33;100.00;-4391.78;5091467;28;20188;-61
2022/07/22 02:49:46;;;;;;;7.47;5.80;;;;;;;18.35;100.00;-4714.91;5091146;28;20188;-61
2022/07/22 02:52:13;;;;;;;6.73;5.37;;;;;;;18.53;100.00;-4392.13;5091479;28;20187;-61
2022/07/22 02:54:40;;;;;;;5.97;5.03;;;;;;;18.51;100.00;-4068.88;5091586;28;20256;-62
2022/07/22 02:57:07;;;;;;;6.63;6.07;;;;;;;18.65;100.00;-3099.03;5091580;28;20611;-60
2022/07/22 02:59:34;;;;;;;10.77;6.23;;;;;;;18.77;100.00;-2452.03;5091425;28;20203;-61
2022/07/22 03:02:01;;;;;;;7.93;5.83;;;;;;;18.88;100.00;-2451.84;5091108;28;20215;-62
2022/07/22 03:04:29;;;;;;;7.13;5.80;;;;;;;18.77;100.00;-1157.75;5093149;28;20188;-61
2022/07/22 03:06:56;;;;;;;10.43;6.10;;;;;;;18.89;100.00;785.44;5095066;28;20184;-61
2022/07/22 03:09:23;;;;;;;8.03;5.60;;;;;;;19.02;100.00;3703.28;5094889;28;20184;-61
2022/07/22 03:11:50;;;;;;;8.80;5.80;;;;;;;18.88;100.00;7269.41;5093236;28;20289;-61
2022/07/22 03:14:18;;;;;;;5.70;5.20;;;;;;;19.18;100.00;9873.06;5095002;28;20211;-61
2022/07/22 03:16:45;;;;;;;5.97;5.37;;;;;;;19.22;100.00;9548.88;5094761;28;20245;-62
2022/07/22 03:19:12;;;;;;;6.50;5.90;;;;;;;19.23;100.00;10199.09;5094976;28;20198;-61
2022/07/22 03:21:40;;;;;;;6.17;5.47;;;;;;;19.33;100.00;9876.28;5094463;28;20210;-61
2022/07/22 03:24:07;;;;;;;9.03;6.97;;;;;;;19.35;100.00;12477.94;5094549;28;20188;-62
2022/07/22 03:26:34;;;;;;;6.00;5.60;;;;;;;19.88;100.00;18356.69;5094611;28;20184;-61
2022/07/22 03:29:01;;;;;;;10.73;6.20;;;;;;;20.54;100.00;34743.78;5093979;28;20196;-62
2022/07/22 03:31:28;;;;;;;9.20;5.97;;;;;;;21.05;100.00;53213.03;5093142;28;20184;-62
2022/07/22 03:33:55;;;;;;;8.90;7.40;;;;;;;21.66;100.00;64523.84;5094450;28;20191;-62
2022/07/22 03:36:22;;;;;;;15.13;8.13;;;;;;;21.90;100.00;68533.22;5094354;28;20195;-62
2022/07/22 03:38:50;;;;;;;18.30;10.10;;;;;;;21.78;100.00;63542.31;5094244;28;20185;-63
2022/07/22 03:41:17;;;;;;;15.93;10.07;;;;;;;21.78;100.00;59566.56;5094773;28;20577;-61
2022/07/22 03:43:44;;;;;;;25.80;10.85;;;;;;;21.79;100.00;54272.53;5094368;28;20232;-61
2022/07/22 03:46:10;;;;;;;21.00;11.98;;;;;;;21.93;100.00;49658.22;5094133;28;20191;-62
2022/07/22 03:48:37;;;;;;;22.13;11.32;;;;;;;22.06;100.00;54959.53;5094423;28;20691;-62
2022/07/22 03:51:07;;;;;;;19.10;12.65;;;;;;;22.18;100.00;62922.44;5094580;28;20547;-62
2022/07/22 03:53:34;;;;;;;17.30;13.90;;;;;;;21.95;100.00;55941.16;5092799;28;20198;-61
2022/07/22 03:56:02;;;;;;;19.88;13.57;;;;;;;22.07;100.00;54960.47;5094200;28;20191;-62
2022/07/22 03:58:29;;;;;;;27.08;13.88;;;;;;;22.16;100.00;57617.34;5093799;28;20184;-62
2022/07/22 04:00:56;;;;;;;18.27;12.25;;;;;;;22.71;100.00;77617.22;5094054;28;20547;-62
2022/07/22 04:03:23;;;;;;;18.42;11.93;;;;;;;23.25;100.00;118640.91;5094089;28;20184;-62
2022/07/22 04:05:50;;;;;;;19.50;11.95;;;;;;;23.42;100.00;142395.91;5093790;28;20184;-62
2022/07/22 04:08:19;;;;;;;12.00;10.80;;;;;;;23.69;100.00;151995.50;5093757;28;20191;-62
2022/07/22 04:10:46;;;;;;;19.75;12.05;;;;;;;23.85;100.00;152035.13;5093497;28;20200;-63
2022/07/22 04:13:14;;;;;;;14.82;11.75;;;;;;;23.88;100.00;152044.03;5093923;28;20192;-62
2022/07/22 04:15:41;;;;;;;17.05;11.63;;;;;;;23.87;100.00;152041.47;5091218;28;20192;-61
2022/07/22 04:18:08;;;;;;;24.67;11.52;;;;;;;23.82;100.00;152027.41;5094067;28;20195;-60
2022/07/22 04:20:35;;;;;;;12.40;10.77;;;;;;;23.85;100.00;152036.34;5092221;28;20203;-61
2022/07/22 04:23:02;;;;;;;14.68;10.98;;;;;;;23.94;100.00;152058.06;5092341;28;20199;-60
2022/07/22 04:25:29;;;;;;;20.92;11.48;;;;;;;24.09;100.00;152096.38;5093334;28;20188;-61
2022/07/22 04:27:56;;;;;;;19.52;11.48;;;;;;;24.26;100.00;152138.56;5093378;28;20184;-61
2022/07/22 04:30:24;;;;;;;19.50;11.80;;;;;;;24.44;100.00;152184.53;5092392;28;20210;-61
2022/07/22 04:32:51;;;;;;;17.10;11.18;;;;;;;24.55;100.00;152213.91;5093483;28;20185;-61
2022/07/22 04:35:18;;;;;;;19.88;11.18;;;;;;;24.63;100.00;152231.75;5093663;28;20180;-63
2022/07/22 04:37:45;;;;;;;26.30;12.32;;;;;;;24.81;100.00;152277.75;5093258;28;20635;-62
2022/07/22 04:40:13;;;;;;;34.00;12.70;;;;;;;24.84;100.00;152286.69;5093061;28;20187;-62
2022/07/22 04:42:40;;;;;;;26.38;12.10;;;;;;;24.69;100.00;152248.38;5093073;28;20208;-62
2022/07/22 04:45:07;;;;;;;26.38;12.52;;;;;;;25.06;100.00;152340.38;5093012;28;20188;-61
2022/07/22 04:47:35;;;;;;;44.58;13.05;;;;;;;25.20;100.00;152376.16;5092955;28;20190;-62
2022/07/22 04:50:02;;;;;;;34.72;12.93;;;;;;;25.32;100.00;152406.81;5093183;28;20185;-61
2022/07/22 04:52:29;;;;;;;37.92;13.23;;;;;;;25.54;100.00;152461.81;5093083;28;20617;-62
2022/07/22 04:54:58;;;;;;;41.30;12.65;;;;;;;25.74;100.00;152512.94;5092803;28;20270;-62
2022/07/22 04:57:25;;;;;;;41.80;13.45;;;;;;;25.87;100.00;152546.16;5092887;28;20275;-62
2022/07/22 04:59:52;;;;;;;43.40;12.82;;;;;;;26.02;100.00;152583.22;5092817;28;20192;-62
2022/07/22 05:02:19;;;;;;;24.50;12.60;;;;;;;26.11;100.00;152606.22;5093035;28;20338;-61
2022/07/22 05:04:47;;;;;;;45.42;11.98;;;;;;;26.13;100.00;152611.38;5092539;28;20190;-61
2022/07/22 05:07:14;;;;;;;26.55;11.63;;;;;;;26.02;100.00;152584.50;5092313;28;20184;-62
2022/07/22 05:09:41;;;;;;;23.33;11.07;;;;;;;26.33;100.00;152663.81;5092820;28;20223;-61
2022/07/22 05:12:08;;;;;;;17.80;10.27;;;;;;;26.45;100.00;152693.22;5092794;28;20254;-61
2022/07/22 05:14:35;;;;;;;21.85;11.05;;;;;;;26.54;100.00;152714.94;5092289;28;20237;-62
2022/07/22 05:17:02;;;;;;;17.65;10.25;;;;;;;26.65;100.00;152743.13;5092738;28;20547;-62
2022/07/22 05:19:29;;;;;;;30.85;11.65;;;;;;;26.71;100.00;152759.72;5092382;28;20180;-62
2022/07/22 05:21:57;;;;;;;25.75;11.43;;;;;;;26.83;100.00;152789.13;5091989;28;20207;-70
2022/07/22 05:24:24;;;;;;;26.42;10.88;;;;;;;27.01;100.00;152833.94;5092614;28;20188;-62
2022/07/22 05:26:51;;;;;;;18.08;10.23;;;;;;;27.27;100.00;152900.47;5092221;28;20184;-62
2022/07/22 05:29:18;;;;;;;22.85;10.35;;;;;;;27.22;100.00;152887.66;5092297;28;20192;-61
2022/07/22 05:31:45;;;;;;;21.83;10.30;;;;;;;26.99;100.00;152828.84;5092320;28;20187;-61
2022/07/22 05:34:12;;;;;;;20.25;8.80;;;;;;;26.98;100.00;152827.56;5092393;28;20622;-62
2022/07/22 05:36:39;;;;;;;16.10;9.68;;;;;;;27.01;100.00;152835.22;5092370;28;20630;-62
2022/07/22 05:39:07;;;;;;;20.30;9.50;;;;;;;27.32;100.00;152913.28;5092349;28;20195;-63
2022/07/22 05:41:34;;;;;;;17.60;8.85;;;;;;;27.58;100.00;152979.81;5092565;28;20208;-62
2022/07/22 05:44:01;;;;;;;14.95;9.13;;;;;;;27.92;100.00;153064.31;5092407;28;20571;-62
2022/07/22 05:46:28;;;;;;;15.73;8.63;;;;;;;28.15;100.00;153124.50;5091983;28;20195;-61
2022/07/22 05:48:55;;;;;;;17.55;9.75;;;;;;;28.30;100.00;153160.34;5092032;28;20191;-61
2022/07/22 05:51:23;;;;;;;14.88;9.48;;;;;;;28.39;100.00;153183.41;5092096;28;20176;-62
2022/07/22 05:53:50;;;;;;;15.43;9.07;;;;;;;28.73;100.00;153269.25;5092096;28;20184;-61
2022/07/22 05:56:18;;;;;;;12.82;7.82;;;;;;;28.94;100.00;153324.25;5091970;28;20275;-62
2022/07/22 05:58:45;;;;;;;19.25;6.53;;;;;;;28.95;100.00;153325.53;5091320;28;20274;-63
2022/07/22 06:01:13;;;;;;;13.73;4.15;;;;;;;29.32;90.12;153420.38;5091976;28;20276;-62
2022/07/22 06:03:40;;;;;;;4.20;2.83;;;;;;;29.67;66.17;153507.47;5091759;28;20195;-62
2022/07/22 06:06:10;;;;;;;7.43;3.63;;;;;;;30.04;70.64;153602.38;5092151;28;20647;-62
2022/07/22 06:08:37;;;;;;;16.33;3.80;;;;;;;30.32;86.32;153674.13;5090768;28;20206;-62
2022/07/22 06:11:04;;;;;;;6.35;3.67;;;;;;;30.95;73.28;153831.84;5092028;28;20730;-62
2022/07/22 06:13:32;;;;;;;26.70;23.02;;;;;;;31.92;82.20;154079.47;5090650;28;20184;-63
2022/07/22 06:16:00;;;;;;;13.27;3.00;;;;;;;32.07;49.10;154118.00;5090698;28;20277;-63
2022/07/22 06:18:27;;;;;;;8.00;2.97;;;;;;;32.56;56.33;154241.19;5078594;28;20203;-63
2022/07/22 06:20:54;;;;;;;8.00;4.70;;;;;;;33.28;68.29;154424.84;5071591;28;20232;-61
2022/07/22 06:23:21;;;;;;;4.25;2.63;;;;;;;33.46;49.77;154469.81;5070201;28;20196;-62
2022/07/22 06:25:48;;;;;;;6.03;2.40;;;;;;;33.90;43.05;154582.88;5071143;28;20196;-62
2022/07/22 06:28:14;;;;;;;27.38;3.17;;;;;;;34.13;42.57;154639.38;5076782;28;20205;-61
2022/07/22 06:30:43;;;;;;;10.88;3.28;;;;;;;34.50;41.07;154734.47;5082485;28;20229;-62
2022/07/22 06:33:10;;;;;;;7.22;2.53;;;;;;;34.64;42.52;154770.47;5089631;28;20195;-62
2022/07/22 06:35:40;;;;;;;5.03;3.25;;;;;;;34.52;43.53;154738.34;5073580;28;20200;-63
2022/07/22 06:38:07;;;;;;;12.73;2.85;;;;;;;34.15;42.26;154645.81;5070919;28;20185;-63
2022/07/22 06:40:35;;;;;;;6.35;3.00;;;;;;;34.09;42.93;154630.38;5074653;28;20193;-62
2022/07/22 06:43:02;;;;;;;3.00;2.35;;;;;;;34.55;41.82;154747.31;5086545;28;20210;-62
2022/07/22 06:45:29;;;;;;;2.88;2.05;;;;;;;35.70;37.86;155040.50;5095807;28;20262;-63
2022/07/22 06:47:58;;;;;;;5.25;1.80;;;;;;;36.03;36.00;155124.06;5095936;28;20550;-62
2022/07/22 06:50:25;;;;;;;3.33;2.15;;;;;;;36.60;36.70;155269.50;5096047;28;20630;-62
2022/07/22 06:52:52;;;;;;;2.58;2.20;;;;;;;36.27;34.52;155184.59;5095610;28;20212;-63
2022/07/22 06:55:19;;;;;;;5.95;2.17;;;;;;;35.76;34.99;155053.38;5096149;28;20195;-62
2022/07/22 06:57:49;;;;;;;2.65;1.77;;;;;;;35.96;35.56;155106.09;5095398;28;20564;-62
2022/07/22 07:00:17;;;;;;;4.32;2.17;;;;;;;35.77;38.25;155057.25;5095611;28;20188;-62
2022/07/22 07:02:44;;;;;;;4.00;2.03;;;;;;;35.83;37.93;155071.34;5094577;28;20232;-63
2022/07/22 07:05:12;;;;;;;3.80;2.03;;;;;;;35.63;36.90;155022.53;5086345;28;20584;-62
2022/07/22 07:07:39;;;;;;;2.58;1.60;;;;;;;35.78;36.38;155058.50;5085764;28;20255;-62
2022/07/22 07:10:06;;;;;;;2.90;1.75;;;;;;;35.60;34.96;155013.50;5086027;28;20288;-62
2022/07/22 07:12:33;;;;;;;1.83;1.63;;;;;;;36.01;34.23;155117.66;5092563;28;20659;-60
2022/07/22 07:15:00;;;;;;;5.30;1.85;;;;;;;36.36;33.05;155207.75;5094216;28;20267;-62
2022/07/22 07:17:27;;;;;;;5.72;2.17;;;;;;;36.59;31.91;155266.94;5092707;28;20195;-62
2022/07/22 07:19:54;;;;;;;4.88;1.83;;;;;;;35.93;31.85;155098.38;5095145;28;20203;-62
2022/07/22 07:22:56;;;;;;;3.97;1.60;;;;;;;35.83;34.46;155072.66;5088770;28;20278;-62
2022/07/22 07:25:22;;;;;;;5.28;1.80;;;;;;;35.75;35.90;155052.09;5083996;28;20274;-62
2022/07/22 07:27:50;;;;;;;7.10;1.63;;;;;;;35.69;34.06;155036.63;5095395;28;20695;-62
2022/07/22 07:30:16;;;;;;;3.80;1.48;;;;;;;35.42;32.51;154968.50;5091948;28;20261;-63
2022/07/22 07:33:18;;;;;;;10.18;1.80;;;;;;;35.24;33.71;154922.19;5086973;28;20199;-63
2022/07/22 07:35:45;;;;;;;2.78;1.83;;;;;;;35.01;33.62;154863.06;5076721;28;20204;-62
2022/07/22 07:38:13;;;;;;;6.45;1.70;;;;;;;34.55;32.55;154747.31;5088134;28;20197;-61
2022/07/22 07:40:40;;;;;;;4.32;1.52;;;;;;;34.68;33.89;154780.78;5088718;28;20204;-62
2022/07/22 07:43:07;;;;;;;3.67;2.78;;;;;;;34.43;33.31;154716.50;5091965;28;20235;-61
2022/07/22 07:45:34;;;;;;;4.45;2.38;;;;;;;34.60;33.78;154760.19;5094881;28;20534;-62
2022/07/22 07:48:07;;;;;;;3.55;1.80;;;;;;;34.61;33.53;154762.75;5078861;28;20296;-62
2022/07/22 07:50:34;;;;;;;1.70;1.60;;;;;;;34.62;34.85;154764.06;5079987;28;20195;-62
2022/07/22 07:53:01;;;;;;;5.15;3.40;;;;;;;34.80;34.94;154811.63;5095094;28;20637;-62
2022/07/22 07:55:29;;;;;;;6.40;2.10;;;;;;;34.96;34.08;154850.19;5094262;28;20274;-62
2022/07/22 07:57:56;;;;;;;3.75;3.28;;;;;;;34.83;33.77;154819.34;5093959;28;20203;-62
2022/07/22 08:00:28;;;;;;;2.30;1.58;;;;;;;34.89;33.02;154833.47;5093971;28;20261;-62
2022/07/22 08:02:56;;;;;;;7.47;2.00;;;;;;;35.07;32.56;154879.75;5094386;28;20204;-62
2022/07/22 08:05:23;;;;;;;2.92;1.70;;;;;;;35.36;33.23;154951.75;5093838;28;20192;-62
2022/07/22 08:07:54;;;;;;;1.95;1.40;;;;;;;35.83;33.29;155071.34;5093411;28;20203;-62
2022/07/22 08:10:21;;;;;;;4.13;1.92;;;;;;;36.34;32.53;155201.28;5094466;28;20207;-63
2022/07/22 08:12:53;;;;;;;8.57;1.65;;;;;;;36.44;31.32;155227.03;5093624;28;20223;-63
2022/07/22 08:15:20;;;;;;;4.38;1.40;;;;;;;36.73;31.47;155300.38;5079274;28;20197;-62
2022/07/22 08:17:59;;;;;;;73.78;65.80;;;;;;;37.04;30.47;155380.16;5073587;28;20188;-63
2022/07/22 08:20:26;;;;;;;8.13;2.25;;;;;;;37.24;30.32;155431.66;5073818;28;20188;-62
2022/07/22 08:22:54;;;;;;;4.00;1.20;;;;;;;37.56;30.03;155512.75;5071872;28;20204;-64
2022/07/22 08:25:23;;;;;;;5.80;1.55;;;;;;;37.11;30.92;155398.19;5073348;28;20181;-62
2022/07/22 08:27:51;;;;;;;2.95;1.55;;;;;;;36.97;30.79;155363.41;5079636;28;20226;-62
2022/07/22 08:30:19;;;;;;;6.50;1.33;;;;;;;36.08;28.76;155136.94;5072149;28;20272;-63
2022/07/22 08:32:47;;;;;;;1.10;1.08;;;;;;;36.07;30.44;155134.34;5073459;28;20189;-62
2022/07/22 08:35:14;;;;;;;8.32;1.40;;;;;;;35.80;30.50;155063.66;5073433;28;20201;-62
2022/07/22 08:37:41;;;;;;;3.00;1.27;;;;;;;35.11;31.76;154890.03;5073756;28;20253;-63
2022/07/22 08:40:10;;;;;;;4.30;1.92;;;;;;;34.78;33.68;154806.50;5073486;28;20288;-62
2022/07/22 08:42:39;;;;;;;5.03;1.30;;;;;;;34.84;32.87;154821.91;5072835;28;20303;-62
2022/07/22 08:45:09;;;;;;;7.53;2.35;;;;;;;35.05;33.87;154873.34;5073384;28;20185;-62
2022/07/22 08:47:36;;;;;;;4.38;1.20;;;;;;;35.13;33.16;154893.91;5072999;28;20262;-62
2022/07/22 08:50:04;;;;;;;1.80;1.50;;;;;;;35.39;32.66;154959.50;5073106;28;20641;-62
2022/07/22 08:52:31;;;;;;;2.08;1.35;;;;;;;35.76;32.02;155053.38;5078369;28;20210;-62
2022/07/22 08:54:58;;;;;;;1.40;1.10;;;;;;;35.82;32.71;155068.81;5093008;28;20180;-62
2022/07/22 08:57:25;;;;;;;5.95;1.50;;;;;;;35.73;32.08;155046.97;5091668;28;20191;-61
2022/07/22 08:59:53;;;;;;;3.20;1.30;;;;;;;35.72;33.50;155044.38;5092792;28;20565;-61
2022/07/22 09:02:22;;;;;;;5.40;1.40;;;;;;;35.90;33.06;155089.38;5091870;28;20207;-62
2022/07/22 09:04:54;;;;;;;3.17;1.00;;;;;;;35.82;32.68;155070.06;5083866;28;20196;-62
2022/07/22 09:07:29;;;;;;;3.53;1.35;;;;;;;35.74;31.81;155049.50;5089010;28;20208;-63
2022/07/22 09:09:57;;;;;;;2.47;1.20;;;;;;;35.71;32.43;155043.09;5080042;28;20226;-62
2022/07/22 09:12:24;;;;;;;4.25;1.50;;;;;;;35.74;32.55;155050.78;5075081;28;20228;-62
2022/07/22 09:14:53;;;;;;;4.22;1.70;;;;;;;35.89;32.66;155086.81;5087497;28;20191;-61
2022/07/22 09:17:29;;;;;;;1.25;1.25;;;;;;;35.24;31.32;154922.19;5080759;28;20205;-62
2022/07/22 09:19:57;;;;;;;2.30;1.52;;;;;;;35.38;33.76;154958.22;5087800;28;20199;-62
2022/07/22 09:22:34;;;;;;;4.60;1.10;;;;;;;35.47;32.59;154980.06;5088811;28;20575;-62
2022/07/22 09:25:18;;;;;;;1.48;1.30;;;;;;;35.59;34.01;155010.91;5081721;28;20229;-62
2022/07/22 09:27:45;;;;;;;2.30;1.40;;;;;;;36.00;32.42;155116.38;5084014;28;20244;-63
2022/07/22 09:30:15;;;;;;;3.42;1.38;;;;;;;36.52;30.95;155247.59;5092341;28;20180;-63
2022/07/22 09:32:44;;;;;;;2.85;1.63;;;;;;;36.88;31.48;155338.94;5092882;28;20183;-62
2022/07/22 09:35:13;;;;;;;6.57;2.35;;;;;;;37.00;30.83;155369.84;5073405;28;20211;-62
2022/07/22 09:37:48;;;;;;;3.95;1.52;;;;;;;37.16;31.31;155411.06;5075053;28;20659;-63
2022/07/22 09:40:17;;;;;;;1.38;1.00;;;;;;;37.28;30.13;155441.94;5072135;28;20654;-62
2022/07/22 09:42:49;;;;;;;3.67;1.30;;;;;;;37.07;31.01;155387.91;5070338;28;20209;-62
2022/07/22 09:45:17;;;;;;;2.17;1.20;;;;;;;36.90;30.31;155344.13;5072296;28;20347;-63
2022/07/22 09:47:46;;;;;;;2.45;1.63;;;;;;;36.59;31.19;155266.94;5071613;28;20231;-62
2022/07/22 09:50:21;;;;;;;5.20;1.23;;;;;;;36.45;31.49;155230.84;5071857;28;20181;-63
2022/07/22 09:52:50;;;;;;;5.03;2.97;;;;;;;36.43;31.38;155224.44;5071283;28;20194;-61
2022/07/22 09:55:19;;;;;;;1.05;0.95;;;;;;;36.16;30.54;155156.25;5071824;28;20624;-62
2022/07/22 09:57:46;;;;;;;2.78;1.17;;;;;;;36.22;30.67;155171.72;5073707;28;20206;-62
2022/07/22 10:00:16;;;;;;;1.35;1.35;;;;;;;36.43;31.51;155225.72;5085188;28;20196;-62
2022/07/22 10:02:49;;;;;;;1.30;1.30;;;;;;;36.36;30.93;155207.75;5092126;28;20243;-62
2022/07/22 10:05:38;;;;;;;1.95;1.17;;;;;;;36.40;31.11;155216.75;5092140;28;20270;-62
2022/07/22 10:08:06;;;;;;;1.35;1.27;;;;;;;36.11;31.04;155144.69;5085044;28;20202;-63
2022/07/22 10:10:35;;;;;;;2.28;1.20;;;;;;;36.49;31.75;155241.19;5091781;28;20214;-62
2022/07/22 10:13:04;;;;;;;3.50;1.20;;;;;;;36.79;31.86;155317.13;5092845;28;20224;-62
2022/07/22 10:15:32;;;;;;;1.00;1.00;;;;;;;37.13;32.20;155403.38;5094556;28;20188;-63
2022/07/22 10:18:06;;;;;;;1.30;1.25;;;;;;;37.31;30.91;155448.34;5095820;28;20190;-62
2022/07/22 10:20:34;;;;;;;1.50;1.25;;;;;;;37.42;32.16;155478.00;5095895;28;20222;-62
2022/07/22 10:23:02;;;;;;;1.95;1.10;;;;;;;37.68;29.98;155543.66;5095317;28;20303;-62
2022/07/22 10:25:32;;;;;;;2.50;1.52;;;;;;;37.50;30.47;155497.28;5095607;28;20186;-62
2022/07/22 10:28:02;;;;;;;1.83;1.58;;;;;;;37.41;30.06;155474.09;5090747;28;20210;-63
2022/07/22 10:30:31;;;;;;;2.58;1.58;;;;;;;37.46;31.08;155488.28;5075918;28;20197;-63
2022/07/22 10:33:12;;;;;;;2.17;1.30;;;;;;;37.30;30.16;155447.06;5093859;28;20195;-62
2022/07/22 10:35:54;;;;;;;1.20;1.10;;;;;;;36.67;30.36;155284.91;5095712;28;20248;-62
2022/07/22 10:38:22;;;;;;;2.45;1.40;;;;;;;36.39;31.67;155215.44;5095637;28;20192;-62
2022/07/22 10:40:51;;;;;;;2.95;1.10;;;;;;;36.52;31.33;155248.88;5095965;28;20276;-62
2022/07/22 10:43:19;;;;;;;2.25;1.20;;;;;;;36.35;31.08;155205.16;5095382;28;20579;-63
2022/07/22 10:45:48;;;;;;;1.75;1.25;;;;;;;36.16;30.42;155156.25;5095469;28;20180;-63
2022/07/22 10:48:19;;;;;;;3.03;1.10;;;;;;;35.89;30.94;155086.81;5097503;28;20188;-65
2022/07/22 10:51:05;;;;;;;2.03;1.25;;;;;;;35.45;31.02;154976.19;5095441;28;20185;-64
2022/07/22 10:53:53;;;;;;;4.15;1.42;;;;;;;35.53;30.38;154996.75;5095597;28;20679;-59
2022/07/22 10:56:23;;;;;;;1.27;1.27;;;;;;;35.14;31.70;154897.72;5095796;28;20184;-62
2022/07/22 10:58:56;;;;;;;18.48;16.85;;;;;;;35.19;31.97;154909.34;5095233;28;20283;-61
2022/07/22 11:01:25;;;;;;;1.45;0.93;;;;;;;35.17;31.82;154904.22;5085147;28;20197;-64
2022/07/22 11:03:54;;;;;;;4.38;1.35;;;;;;;34.77;31.96;154802.63;5075182;28;20763;-65
2022/07/22 11:06:28;;;;;;;0.90;0.90;;;;;;;34.56;30.35;154749.91;5074327;28;20189;-64
2022/07/22 11:08:57;;;;;;;1.30;1.30;;;;;;;34.57;30.27;154752.50;5094099;28;20282;-65
2022/07/22 11:11:42;;;;;;;1.25;1.15;;;;;;;34.54;31.29;154743.50;5094769;28;20223;-65
2022/07/22 11:14:19;;;;;;;1.17;1.10;;;;;;;34.19;32.15;154654.84;5095863;28;20244;-65
2022/07/22 11:16:48;;;;;;;1.23;1.10;;;;;;;34.33;33.53;154692.06;5095255;28;20184;-64
2022/07/22 11:19:21;;;;;;;1.80;1.70;;;;;;;34.49;32.12;154731.94;5095420;28;20211;-64
2022/07/22 11:21:52;;;;;;;1.23;1.00;;;;;;;34.61;33.89;154762.75;5095850;28;20207;-65
2022/07/22 11:24:19;;;;;;;0.98;0.98;;;;;;;34.60;32.37;154760.19;5074127;28;20213;-65
2022/07/22 11:26:48;;;;;;;1.50;1.40;;;;;;;34.64;32.66;154770.47;5074612;28;20196;-66
2022/07/22 11:29:18;;;;;;;1.75;1.38;;;;;;;34.43;31.89;154716.50;5075045;28;20180;-66